sensor_id;sensor_type;location;lat;lon;timestamp;pressure;altitude;pressure_sealevel;temperature;humidity
51528;BME280;37612;51.768;21.590;2024-01-25T00:46:07;98989.02;;;5.05;100.00
51528;BME280;37612;51.768;21.590;2024-01-25T03:26:01;99011.65;;;4.47;100.00
51528;BME280;37612;51.768;21.590;2024-01-25T03:43:51;99013.39;;;4.36;100.00
51528;BME280;37612;51.768;21.590;2024-01-25T04:38:05;99022.41;;;4.02;100.00
51528;BME280;37612;51.768;21.590;2024-01-25T04:42:30;99031.44;;;4.00;100.00
51528;BME280;37612;51.768;21.590;2024-01-25T04:46:33;99026.91;;;3.98;100.00
51528;BME280;37612;51.768;21.590;2024-01-25T04:51:17;99020.51;;;3.95;100.00
51528;BME280;37612;51.768;21.590;2024-01-25T04:55:39;99011.95;;;3.97;100.00
51528;BME280;37612;51.768;21.590;2024-01-25T06:12:21;99063.99;;;4.08;100.00
51528;BME280;37612;51.768;21.590;2024-01-25T06:43:42;99079.84;;;4.10;100.00
51528;BME280;37612;51.768;21.590;2024-01-25T06:52:29;99090.10;;;4.16;100.00
51528;BME280;37612;51.768;21.590;2024-01-25T06:56:31;99093.76;;;4.19;100.00
51528;BME280;37612;51.768;21.590;2024-01-25T07:00:35;99100.60;;;4.20;100.00
51528;BME280;37612;51.768;21.590;2024-01-25T07:04:41;99094.36;;;4.18;100.00
51528;BME280;37612;51.768;21.590;2024-01-25T07:08:44;99098.37;;;4.17;100.00
51528;BME280;37612;51.768;21.590;2024-01-25T07:12:47;99100.37;;;4.17;100.00
51528;BME280;37612;51.768;21.590;2024-01-25T07:16:49;99103.07;;;4.15;100.00
51528;BME280;37612;51.768;21.590;2024-01-25T07:20:51;99102.62;;;4.16;100.00
51528;BME280;37612;51.768;21.590;2024-01-25T07:25:07;99097.48;;;4.17;100.00
51528;BME280;37612;51.768;21.590;2024-01-25T07:29:10;99100.62;;;4.14;100.00
51528;BME280;37612;51.768;21.590;2024-01-25T07:33:14;99106.13;;;4.12;100.00
51528;BME280;37612;51.768;21.590;2024-01-25T07:37:20;99107.54;;;4.13;100.00
51528;BME280;37612;51.768;21.590;2024-01-25T07:41:22;99111.18;;;4.12;100.00
51528;BME280;37612;51.768;21.590;2024-01-25T07:45:25;99107.48;;;4.09;100.00
51528;BME280;37612;51.768;21.590;2024-01-25T07:49:41;99111.73;;;4.07;100.00
51528;BME280;37612;51.768;21.590;2024-01-25T07:53:43;99110.95;;;4.05;100.00
51528;BME280;37612;51.768;21.590;2024-01-25T07:57:45;99118.05;;;4.04;100.00
51528;BME280;37612;51.768;21.590;2024-01-25T08:01:49;99124.85;;;4.06;100.00
51528;BME280;37612;51.768;21.590;2024-01-25T08:06:01;99116.65;;;4.07;100.00
51528;BME280;37612;51.768;21.590;2024-01-25T08:10:35;99118.73;;;4.06;100.00
51528;BME280;37612;51.768;21.590;2024-01-25T08:14:37;99119.73;;;4.07;100.00
51528;BME280;37612;51.768;21.590;2024-01-25T08:18:40;99126.00;;;4.07;100.00
51528;BME280;37612;51.768;21.590;2024-01-25T08:22:43;99123.17;;;4.04;100.00
51528;BME280;37612;51.768;21.590;2024-01-25T08:27:05;99122.55;;;4.02;100.00
51528;BME280;37612;51.768;21.590;2024-01-25T08:31:10;99123.36;;;4.03;100.00
51528;BME280;37612;51.768;21.590;2024-01-25T08:35:13;99125.48;;;4.01;100.00
51528;BME280;37612;51.768;21.590;2024-01-25T08:39:35;99127.05;;;4.00;100.00
51528;BME280;37612;51.768;21.590;2024-01-25T08:43:37;99131.80;;;4.03;100.00
51528;BME280;37612;51.768;21.590;2024-01-25T08:47:52;99138.05;;;4.03;100.00
51528;BME280;37612;51.768;21.590;2024-01-25T08:51:53;99139.11;;;4.06;100.00
51528;BME280;37612;51.768;21.590;2024-01-25T08:55:56;99141.02;;;4.08;100.00
51528;BME280;37612;51.768;21.590;2024-01-25T08:59:58;99146.56;;;4.10;100.00
51528;BME280;37612;51.768;21.590;2024-01-25T09:04:11;99147.90;;;4.16;100.00
51528;BME280;37612;51.768;21.590;2024-01-25T09:08:14;99149.86;;;4.17;100.00
51528;BME280;37612;51.768;21.590;2024-01-25T09:12:24;99150.83;;;4.16;100.00
51528;BME280;37612;51.768;21.590;2024-01-25T09:16:27;99159.10;;;4.18;100.00
51528;BME280;37612;51.768;21.590;2024-01-25T09:20:29;99171.54;;;4.19;100.00
51528;BME280;37612;51.768;21.590;2024-01-25T09:24:33;99178.02;;;4.24;100.00
51528;BME280;37612;51.768;21.590;2024-01-25T09:28:40;99177.06;;;4.25;100.00
51528;BME280;37612;51.768;21.590;2024-01-25T09:32:42;99182.31;;;4.30;100.00
51528;BME280;37612;51.768;21.590;2024-01-25T09:36:45;99188.73;;;4.33;100.00
51528;BME280;37612;51.768;21.590;2024-01-25T09:40:47;99193.40;;;4.35;100.00
51528;BME280;37612;51.768;21.590;2024-01-25T09:44:52;99194.79;;;4.35;100.00
51528;BME280;37612;51.768;21.590;2024-01-25T09:48:55;99193.14;;;4.30;100.00
51528;BME280;37612;51.768;21.590;2024-01-25T09:52:59;99205.19;;;4.29;100.00
51528;BME280;37612;51.768;21.590;2024-01-25T09:57:07;99215.48;;;4.25;100.00
51528;BME280;37612;51.768;21.590;2024-01-25T10:01:12;99215.59;;;4.23;100.00
51528;BME280;37612;51.768;21.590;2024-01-25T10:05:15;99216.66;;;4.23;100.00
51528;BME280;37612;51.768;21.590;2024-01-25T10:09:17;99220.48;;;4.20;100.00
51528;BME280;37612;51.768;21.590;2024-01-25T10:13:19;99220.85;;;4.20;100.00
51528;BME280;37612;51.768;21.590;2024-01-25T10:17:21;99231.34;;;4.17;100.00
51528;BME280;37612;51.768;21.590;2024-01-25T10:21:23;99234.59;;;4.18;100.00
51528;BME280;37612;51.768;21.590;2024-01-25T10:25:34;99234.45;;;4.15;100.00
51528;BME280;37612;51.768;21.590;2024-01-25T10:29:40;99244.95;;;4.16;100.00
51528;BME280;37612;51.768;21.590;2024-01-25T10:33:42;99245.80;;;4.20;100.00
51528;BME280;37612;51.768;21.590;2024-01-25T10:37:45;99242.61;;;4.22;100.00
51528;BME280;37612;51.768;21.590;2024-01-25T10:41:47;99251.92;;;4.24;100.00
51528;BME280;37612;51.768;21.590;2024-01-25T10:45:53;99261.15;;;4.24;100.00
51528;BME280;37612;51.768;21.590;2024-01-25T10:49:57;99253.21;;;4.21;100.00
51528;BME280;37612;51.768;21.590;2024-01-25T10:54:00;99247.89;;;4.24;100.00
51528;BME280;37612;51.768;21.590;2024-01-25T10:58:03;99256.28;;;4.23;100.00
51528;BME280;37612;51.768;21.590;2024-01-25T11:02:05;99254.23;;;4.24;100.00
51528;BME280;37612;51.768;21.590;2024-01-25T11:06:10;99259.99;;;4.27;100.00
51528;BME280;37612;51.768;21.590;2024-01-25T11:10:17;99265.04;;;4.29;100.00
51528;BME280;37612;51.768;21.590;2024-01-25T11:14:20;99257.79;;;4.33;100.00
51528;BME280;37612;51.768;21.590;2024-01-25T11:18:25;99263.73;;;4.32;100.00
51528;BME280;37612;51.768;21.590;2024-01-25T11:22:36;99270.59;;;4.31;100.00
51528;BME280;37612;51.768;21.590;2024-01-25T11:26:38;99266.90;;;4.35;100.00
51528;BME280;37612;51.768;21.590;2024-01-25T11:30:57;99277.19;;;4.33;100.00
51528;BME280;37612;51.768;21.590;2024-01-25T11:35:00;99276.82;;;4.36;100.00
51528;BME280;37612;51.768;21.590;2024-01-25T11:39:21;99279.50;;;4.33;100.00
51528;BME280;37612;51.768;21.590;2024-01-25T11:43:33;99289.86;;;4.36;100.00
51528;BME280;37612;51.768;21.590;2024-01-25T11:47:55;99285.46;;;4.37;100.00
51528;BME280;37612;51.768;21.590;2024-01-25T11:51:58;99287.45;;;4.42;100.00
51528;BME280;37612;51.768;21.590;2024-01-25T11:56:01;99292.81;;;4.44;100.00
51528;BME280;37612;51.768;21.590;2024-01-25T12:00:05;99295.95;;;4.47;100.00
51528;BME280;37612;51.768;21.590;2024-01-25T12:04:07;99298.92;;;4.49;100.00
51528;BME280;37612;51.768;21.590;2024-01-25T12:08:13;99306.33;;;4.54;100.00
51528;BME280;37612;51.768;21.590;2024-01-25T12:12:35;99303.41;;;4.58;100.00
51528;BME280;37612;51.768;21.590;2024-01-25T12:16:37;99308.11;;;4.60;100.00
51528;BME280;37612;51.768;21.590;2024-01-25T12:20:39;99306.84;;;4.60;100.00
51528;BME280;37612;51.768;21.590;2024-01-25T12:24:41;99307.71;;;4.61;100.00
51528;BME280;37612;51.768;21.590;2024-01-25T12:28:59;99306.33;;;4.61;100.00
51528;BME280;37612;51.768;21.590;2024-01-25T12:33:41;99311.91;;;4.64;100.00
51528;BME280;37612;51.768;21.590;2024-01-25T12:38:07;99321.89;;;4.64;100.00
51528;BME280;37612;51.768;21.590;2024-01-25T12:42:09;99326.94;;;4.63;100.00
51528;BME280;37612;51.768;21.590;2024-01-25T12:46:14;99334.55;;;4.62;100.00
51528;BME280;37612;51.768;21.590;2024-01-25T12:50:16;99333.50;;;4.59;100.00
51528;BME280;37612;51.768;21.590;2024-01-25T12:54:18;99340.33;;;4.54;100.00
51528;BME280;37612;51.768;21.590;2024-01-25T12:58:26;99346.06;;;4.51;100.00
51528;BME280;37612;51.768;21.590;2024-01-25T13:02:38;99350.56;;;4.49;100.00
51528;BME280;37612;51.768;21.590;2024-01-25T13:06:40;99351.15;;;4.45;100.00
51528;BME280;37612;51.768;21.590;2024-01-25T13:15:23;99358.02;;;4.45;100.00
51528;BME280;37612;51.768;21.590;2024-01-25T13:20:25;99358.11;;;4.47;100.00
51528;BME280;37612;51.768;21.590;2024-01-25T13:25:27;99362.50;;;4.42;100.00
51528;BME280;37612;51.768;21.590;2024-01-25T13:38:21;99419.99;;;4.10;100.00
51528;BME280;37612;51.768;21.590;2024-01-25T13:43:01;99433.67;;;3.43;100.00
51528;BME280;37612;51.768;21.590;2024-01-25T13:48:03;99443.39;;;3.16;100.00
51528;BME280;37612;51.768;21.590;2024-01-25T13:52:42;99455.06;;;3.04;100.00
51528;BME280;37612;51.768;21.590;2024-01-25T13:56:44;99460.27;;;3.00;100.00
51528;BME280;37612;51.768;21.590;2024-01-25T14:00:46;99468.02;;;2.96;100.00
51528;BME280;37612;51.768;21.590;2024-01-25T14:05:08;99477.86;;;2.94;100.00
51528;BME280;37612;51.768;21.590;2024-01-25T14:09:30;99490.52;;;2.92;100.00
51528;BME280;37612;51.768;21.590;2024-01-25T14:13:32;99495.60;;;2.90;100.00
51528;BME280;37612;51.768;21.590;2024-01-25T14:17:54;99502.75;;;2.88;100.00
51528;BME280;37612;51.768;21.590;2024-01-25T14:21:57;99507.33;;;2.84;100.00
51528;BME280;37612;51.768;21.590;2024-01-25T14:25:59;99516.21;;;2.87;100.00
51528;BME280;37612;51.768;21.590;2024-01-25T14:30:01;99529.29;;;2.86;100.00
51528;BME280;37612;51.768;21.590;2024-01-25T14:34:23;99539.10;;;2.87;100.00
51528;BME280;37612;51.768;21.590;2024-01-25T14:38:45;99551.90;;;2.81;100.00
51528;BME280;37612;51.768;21.590;2024-01-25T14:42:50;99559.27;;;2.77;100.00
51528;BME280;37612;51.768;21.590;2024-01-25T14:46:52;99564.88;;;2.72;100.00
51528;BME280;37612;51.768;21.590;2024-01-25T14:50:53;99577.02;;;2.70;100.00
51528;BME280;37612;51.768;21.590;2024-01-25T14:55:15;99580.36;;;2.65;100.00
51528;BME280;37612;51.768;21.590;2024-01-25T14:59:18;99587.55;;;2.60;100.00
51528;BME280;37612;51.768;21.590;2024-01-25T15:04:23;99598.36;;;2.50;100.00
51528;BME280;37612;51.768;21.590;2024-01-25T15:08:28;99610.66;;;2.43;100.00
51528;BME280;37612;51.768;21.590;2024-01-25T15:12:30;99615.77;;;2.36;100.00
51528;BME280;37612;51.768;21.590;2024-01-25T15:16:32;99625.73;;;2.24;100.00
51528;BME280;37612;51.768;21.590;2024-01-25T15:20:35;99640.20;;;2.16;100.00
51528;BME280;37612;51.768;21.590;2024-01-25T15:24:37;99640.38;;;2.07;100.00
51528;BME280;37612;51.768;21.590;2024-01-25T15:29:14;99639.52;;;2.00;100.00
51528;BME280;37612;51.768;21.590;2024-01-25T15:38:30;99660.55;;;1.86;100.00
51528;BME280;37612;51.768;21.590;2024-01-25T15:42:53;99668.05;;;1.82;100.00
51528;BME280;37612;51.768;21.590;2024-01-25T15:47:24;99677.44;;;1.80;100.00
51528;BME280;37612;51.768;21.590;2024-01-25T15:51:47;99680.47;;;1.82;100.00
51528;BME280;37612;51.768;21.590;2024-01-25T15:56:31;99689.02;;;1.81;100.00
51528;BME280;37612;51.768;21.590;2024-01-25T16:00:34;99698.03;;;1.81;100.00
51528;BME280;37612;51.768;21.590;2024-01-25T16:04:54;99698.04;;;1.81;100.00
51528;BME280;37612;51.768;21.590;2024-01-25T16:09:04;99709.17;;;1.83;100.00
51528;BME280;37612;51.768;21.590;2024-01-25T16:17:43;99720.45;;;1.84;100.00
51528;BME280;37612;51.768;21.590;2024-01-25T16:21:47;99731.92;;;1.85;100.00
51528;BME280;37612;51.768;21.590;2024-01-25T16:26:11;99739.08;;;1.85;100.00
51528;BME280;37612;51.768;21.590;2024-01-25T16:30:37;99747.77;;;1.87;100.00
51528;BME280;37612;51.768;21.590;2024-01-25T16:34:39;99750.98;;;1.88;100.00
51528;BME280;37612;51.768;21.590;2024-01-25T16:38:41;99755.48;;;1.89;100.00
51528;BME280;37612;51.768;21.590;2024-01-25T16:42:43;99764.10;;;1.91;100.00
51528;BME280;37612;51.768;21.590;2024-01-25T16:46:45;99778.42;;;1.90;100.00
51528;BME280;37612;51.768;21.590;2024-01-25T16:50:47;99788.41;;;1.94;100.00
51528;BME280;37612;51.768;21.590;2024-01-25T16:55:16;99793.89;;;1.98;100.00
51528;BME280;37612;51.768;21.590;2024-01-25T16:59:51;99790.64;;;1.99;100.00
51528;BME280;37612;51.768;21.590;2024-01-25T17:03:55;99802.20;;;2.06;99.98
51528;BME280;37612;51.768;21.590;2024-01-25T17:07:57;99807.27;;;2.04;99.99
51528;BME280;37612;51.768;21.590;2024-01-25T17:11:59;99813.71;;;2.08;99.11
51528;BME280;37612;51.768;21.590;2024-01-25T17:16:01;99819.39;;;2.07;99.50
51528;BME280;37612;51.768;21.590;2024-01-25T17:20:03;99826.02;;;2.06;99.03
51528;BME280;37612;51.768;21.590;2024-01-25T17:24:06;99829.92;;;2.10;97.45
51528;BME280;37612;51.768;21.590;2024-01-25T17:28:31;99842.08;;;2.10;97.62
51528;BME280;37612;51.768;21.590;2024-01-25T17:32:43;99847.06;;;2.10;97.90
51528;BME280;37612;51.768;21.590;2024-01-25T17:36:45;99855.92;;;2.07;97.47
51528;BME280;37612;51.768;21.590;2024-01-25T17:40:46;99865.64;;;2.09;97.78
51528;BME280;37612;51.768;21.590;2024-01-25T17:44:48;99871.65;;;2.08;97.62
51528;BME280;37612;51.768;21.590;2024-01-25T17:49:10;99875.12;;;2.05;97.50
51528;BME280;37612;51.768;21.590;2024-01-25T17:53:15;99893.27;;;2.06;95.92
51528;BME280;37612;51.768;21.590;2024-01-25T17:57:21;99896.59;;;2.03;94.78
51528;BME280;37612;51.768;21.590;2024-01-25T18:01:43;99884.02;;;1.99;94.21
51528;BME280;37612;51.768;21.590;2024-01-25T18:05:44;99879.65;;;1.93;92.20
51528;BME280;37612;51.768;21.590;2024-01-25T18:09:52;99892.61;;;1.84;91.44
51528;BME280;37612;51.768;21.590;2024-01-25T18:13:53;99887.66;;;1.74;91.59
51528;BME280;37612;51.768;21.590;2024-01-25T18:17:58;99893.40;;;1.72;90.39
51528;BME280;37612;51.768;21.590;2024-01-25T18:22:00;99892.81;;;1.68;90.10
51528;BME280;37612;51.768;21.590;2024-01-25T18:26:03;99904.99;;;1.65;90.15
51528;BME280;37612;51.768;21.590;2024-01-25T18:30:06;99904.68;;;1.67;90.98
51528;BME280;37612;51.768;21.590;2024-01-25T18:34:09;99916.80;;;1.69;91.20
51528;BME280;37612;51.768;21.590;2024-01-25T18:38:11;99926.22;;;1.68;90.95
51528;BME280;37612;51.768;21.590;2024-01-25T18:42:14;99922.42;;;1.70;90.93
51528;BME280;37612;51.768;21.590;2024-01-25T18:47:02;99928.08;;;1.74;90.36
51528;BME280;37612;51.768;21.590;2024-01-25T18:51:06;99935.15;;;1.73;90.63
51528;BME280;37612;51.768;21.590;2024-01-25T18:55:08;99946.07;;;1.77;90.37
51528;BME280;37612;51.768;21.590;2024-01-25T18:59:41;99945.91;;;1.77;91.29
51528;BME280;37612;51.768;21.590;2024-01-25T19:04:18;99952.29;;;1.74;91.01
51528;BME280;37612;51.768;21.590;2024-01-25T19:09:01;99960.34;;;1.75;90.92
51528;BME280;37612;51.768;21.590;2024-01-25T19:13:42;99961.10;;;1.73;91.05
51528;BME280;37612;51.768;21.590;2024-01-25T19:18:04;99968.27;;;1.72;91.12
51528;BME280;37612;51.768;21.590;2024-01-25T19:22:46;99978.61;;;1.69;91.39
51528;BME280;37612;51.768;21.590;2024-01-25T19:31:27;99987.63;;;1.68;91.47
51528;BME280;37612;51.768;21.590;2024-01-25T19:36:08;99994.86;;;1.66;91.45
51528;BME280;37612;51.768;21.590;2024-01-25T19:44:24;99998.42;;;1.66;92.37
51528;BME280;37612;51.768;21.590;2024-01-25T20:02:29;99993.00;;;1.55;94.13
51528;BME280;37612;51.768;21.590;2024-01-25T20:06:34;100000.27;;;1.53;94.39
51528;BME280;37612;51.768;21.590;2024-01-25T20:11:11;100001.55;;;1.50;94.59
51528;BME280;37612;51.768;21.590;2024-01-25T20:20:21;100012.31;;;1.46;94.89
51528;BME280;37612;51.768;21.590;2024-01-25T20:42:37;100038.05;;;1.39;95.77
51528;BME280;37612;51.768;21.590;2024-01-25T20:46:50;100038.38;;;1.34;96.30
51528;BME280;37612;51.768;21.590;2024-01-25T20:55:31;100051.70;;;1.32;96.63
51528;BME280;37612;51.768;21.590;2024-01-25T21:00:03;100062.95;;;1.33;96.77
51528;BME280;37612;51.768;21.590;2024-01-25T21:04:40;100065.73;;;1.31;96.69
51528;BME280;37612;51.768;21.590;2024-01-25T21:09:02;100069.89;;;1.29;96.84
51528;BME280;37612;51.768;21.590;2024-01-25T21:13:05;100068.48;;;1.29;96.97
51528;BME280;37612;51.768;21.590;2024-01-25T21:17:08;100072.61;;;1.26;96.87
51528;BME280;37612;51.768;21.590;2024-01-25T21:21:30;100081.27;;;1.22;97.07
51528;BME280;37612;51.768;21.590;2024-01-25T21:26:32;100085.68;;;1.18;97.24
51528;BME280;37612;51.768;21.590;2024-01-25T21:30:37;100081.34;;;1.18;97.35
51528;BME280;37612;51.768;21.590;2024-01-25T21:34:48;100084.95;;;1.15;97.23
51528;BME280;37612;51.768;21.590;2024-01-25T21:43:06;100082.86;;;1.12;96.97
51528;BME280;37612;51.768;21.590;2024-01-25T21:47:09;100080.88;;;1.12;97.12
51528;BME280;37612;51.768;21.590;2024-01-25T21:51:12;100091.84;;;1.09;97.37
51528;BME280;37612;51.768;21.590;2024-01-25T21:55:14;100097.36;;;1.07;97.56
51528;BME280;37612;51.768;21.590;2024-01-25T21:59:20;100094.77;;;1.06;97.66
51528;BME280;37612;51.768;21.590;2024-01-25T22:03:25;100097.27;;;1.05;97.76
51528;BME280;37612;51.768;21.590;2024-01-25T22:07:29;100099.31;;;1.05;97.98
51528;BME280;37612;51.768;21.590;2024-01-25T22:11:53;100104.69;;;1.04;97.92
51528;BME280;37612;51.768;21.590;2024-01-25T22:15:55;100111.12;;;1.03;97.99
51528;BME280;37612;51.768;21.590;2024-01-25T22:20:01;100115.09;;;1.01;98.03
51528;BME280;37612;51.768;21.590;2024-01-25T22:24:03;100124.54;;;1.02;97.98
51528;BME280;37612;51.768;21.590;2024-01-25T22:28:05;100125.52;;;1.01;97.90
51528;BME280;37612;51.768;21.590;2024-01-25T22:32:08;100137.95;;;1.01;98.00
51528;BME280;37612;51.768;21.590;2024-01-25T22:40:53;100148.84;;;0.98;97.79
51528;BME280;37612;51.768;21.590;2024-01-25T22:45:16;100155.27;;;1.02;97.63
51528;BME280;37612;51.768;21.590;2024-01-25T22:49:58;100157.66;;;1.02;96.85
51528;BME280;37612;51.768;21.590;2024-01-25T22:54:01;100165.48;;;1.04;96.83
51528;BME280;37612;51.768;21.590;2024-01-25T22:58:14;100169.95;;;1.05;96.29
51528;BME280;37612;51.768;21.590;2024-01-25T23:02:16;100174.58;;;1.04;95.80
51528;BME280;37612;51.768;21.590;2024-01-25T23:06:33;100177.81;;;1.07;95.63
51528;BME280;37612;51.768;21.590;2024-01-25T23:11:00;100181.58;;;1.06;95.31
51528;BME280;37612;51.768;21.590;2024-01-25T23:15:29;100187.32;;;1.06;95.11
51528;BME280;37612;51.768;21.590;2024-01-25T23:20:12;100182.70;;;1.07;95.25
51528;BME280;37612;51.768;21.590;2024-01-25T23:24:24;100188.96;;;1.03;95.16
51528;BME280;37612;51.768;21.590;2024-01-25T23:32:45;100205.23;;;1.02;95.28
51528;BME280;37612;51.768;21.590;2024-01-25T23:37:52;100210.48;;;1.02;95.14
51528;BME280;37612;51.768;21.590;2024-01-25T23:56:00;100223.25;;;0.99;94.61
